createdAt,value
2017-12-13T00:02:24.579Z,57.13
2017-12-13T00:04:50.346Z,54.50
2017-12-13T00:07:16.079Z,56.77
2017-12-13T00:09:41.820Z,51.73
2017-12-13T00:12:07.571Z,50.87
2017-12-13T00:14:33.304Z,48.87
2017-12-13T00:17:00.970Z,55.87
2017-12-13T00:19:26.747Z,48.38
2017-12-13T00:21:52.711Z,51.03
2017-12-13T00:24:18.443Z,49.13
2017-12-13T00:26:44.196Z,41.67
2017-12-13T00:29:09.936Z,45.43
2017-12-13T00:31:35.696Z,42.63
2017-12-13T00:34:01.909Z,46.70
2017-12-13T00:36:27.675Z,53.75
2017-12-13T00:38:53.406Z,40.60
2017-12-13T00:41:19.173Z,46.70
2017-12-13T00:43:45.977Z,42.30
2017-12-13T00:46:12.037Z,44.10
2017-12-13T00:48:37.766Z,51.35
2017-12-13T00:51:05.052Z,46.00
2017-12-13T00:53:30.984Z,43.20
2017-12-13T00:55:59.780Z,52.27
2017-12-13T00:58:26.811Z,46.35
2017-12-13T01:00:53.221Z,52.20
2017-12-13T01:03:19.691Z,53.65
2017-12-13T01:05:48.133Z,56.25
2017-12-13T01:08:14.769Z,52.03
2017-12-13T01:10:41.353Z,58.30
2017-12-13T01:13:08.858Z,52.55
2017-12-13T01:15:35.471Z,59.22
2017-12-13T01:18:04.653Z,56.58
2017-12-13T01:20:31.002Z,57.62
2017-12-13T01:23:00.236Z,64.18
2017-12-13T01:25:26.799Z,69.05
2017-12-13T01:27:53.322Z,66.35
2017-12-13T01:30:20.126Z,75.12
2017-12-13T01:32:47.474Z,66.18
2017-12-13T01:35:13.821Z,65.60
2017-12-13T01:37:41.908Z,73.80
2017-12-13T01:40:08.291Z,63.05
2017-12-13T01:42:35.032Z,64.00
2017-12-13T01:45:03.347Z,70.75
2017-12-13T01:47:30.222Z,62.47
2017-12-13T01:49:58.060Z,61.50
2017-12-13T01:52:25.364Z,66.43
2017-12-13T01:54:52.352Z,67.00
2017-12-13T01:57:21.696Z,65.82
2017-12-13T01:59:49.767Z,67.65
2017-12-13T02:02:16.067Z,65.47
2017-12-13T02:04:43.941Z,69.65
2017-12-13T02:07:13.385Z,65.55
2017-12-13T02:09:41.788Z,74.45
2017-12-13T02:12:09.122Z,74.55
2017-12-13T02:14:35.781Z,72.07
2017-12-13T02:17:02.625Z,66.53
2017-12-13T02:19:34.375Z,69.53
2017-12-13T02:22:02.714Z,71.87
2017-12-13T02:24:31.737Z,60.97
2017-12-13T02:27:01.241Z,83.93
2017-12-13T02:29:31.227Z,69.95
2017-12-13T02:32:04.629Z,83.95
2017-12-13T02:34:32.644Z,72.20
2017-12-13T02:37:02.248Z,81.05
2017-12-13T02:39:28.949Z,81.65
2017-12-13T02:41:57.837Z,67.45
2017-12-13T02:44:29.463Z,71.57
2017-12-13T02:46:57.863Z,71.07
2017-12-13T02:49:25.770Z,64.47
2017-12-13T02:51:55.110Z,67.82
2017-12-13T02:54:23.631Z,71.05
2017-12-13T02:56:52.257Z,68.95
2017-12-13T02:59:23.765Z,73.45
2017-12-13T03:01:51.749Z,74.32
2017-12-13T03:04:19.371Z,69.12
2017-12-13T03:06:46.809Z,71.00
2017-12-13T03:09:16.706Z,73.90
2017-12-13T03:11:44.554Z,68.87
2017-12-13T03:14:17.979Z,77.28
2017-12-13T03:16:46.684Z,70.47
2017-12-13T03:19:14.758Z,77.50
2017-12-13T03:21:42.989Z,69.30
2017-12-13T03:24:10.809Z,71.35
2017-12-13T03:26:39.417Z,73.90
2017-12-13T03:29:08.010Z,75.93
2017-12-13T03:31:33.809Z,67.15
2017-12-13T03:33:59.552Z,72.40
2017-12-13T03:36:25.291Z,75.60
2017-12-13T03:38:51.052Z,75.03
2017-12-13T03:41:16.782Z,66.97
2017-12-13T03:43:42.522Z,65.30
2017-12-13T03:46:09.941Z,65.33
2017-12-13T03:48:35.767Z,57.60
2017-12-13T03:51:01.501Z,59.73
2017-12-13T03:53:27.280Z,59.07
2017-12-13T03:55:53.019Z,66.87
2017-12-13T03:58:18.773Z,59.10
2017-12-13T04:00:44.508Z,64.27
2017-12-13T04:03:10.273Z,59.33
2017-12-13T04:05:36.006Z,62.90
2017-12-13T04:08:03.286Z,63.27
2017-12-13T04:10:30.000Z,60.03
2017-12-13T04:12:55.821Z,61.33
2017-12-13T04:15:21.572Z,65.43
2017-12-13T04:17:47.320Z,63.33
2017-12-13T04:20:13.071Z,65.47
2017-12-13T04:22:38.813Z,85.33
2017-12-13T04:25:04.582Z,66.80
2017-12-13T04:27:30.331Z,58.47
2017-12-13T04:29:56.080Z,62.80
2017-12-13T04:32:21.846Z,61.87
2017-12-13T04:34:47.601Z,69.07
2017-12-13T04:37:13.353Z,58.83
2017-12-13T04:39:39.170Z,62.93
2017-12-13T04:42:04.916Z,65.47
2017-12-13T04:44:30.675Z,72.30
2017-12-13T04:46:56.411Z,65.97
2017-12-13T04:49:22.160Z,69.67
2017-12-13T04:51:47.900Z,60.10
2017-12-13T04:54:13.678Z,67.97
2017-12-13T04:56:39.408Z,65.43
2017-12-13T04:59:05.147Z,61.80
2017-12-13T05:01:30.920Z,65.87
2017-12-13T05:03:56.659Z,58.83
2017-12-13T05:06:22.402Z,61.50
2017-12-13T05:08:48.151Z,65.70
2017-12-13T05:11:13.903Z,67.33
2017-12-13T05:13:39.656Z,64.60
2017-12-13T05:16:05.395Z,71.50
2017-12-13T05:18:31.135Z,72.33
2017-12-13T05:20:56.888Z,74.03
2017-12-13T05:23:22.634Z,77.07
2017-12-13T05:25:48.389Z,86.93
2017-12-13T05:28:14.143Z,70.37
2017-12-13T05:30:39.927Z,76.90
2017-12-13T05:33:05.664Z,82.33
2017-12-13T05:35:31.435Z,83.90
2017-12-13T05:37:57.184Z,73.03
2017-12-13T05:40:23.063Z,72.80
2017-12-13T05:42:48.823Z,81.53
2017-12-13T05:45:14.603Z,76.73
2017-12-13T05:47:43.811Z,66.53
2017-12-13T05:50:13.347Z,66.87
2017-12-13T05:52:42.511Z,69.80
2017-12-13T05:55:08.314Z,71.50
2017-12-13T05:57:34.088Z,67.43
2017-12-13T05:59:59.824Z,70.30
2017-12-13T06:02:25.588Z,80.37
2017-12-13T06:04:51.337Z,64.40
2017-12-13T06:07:17.091Z,66.73
2017-12-13T06:09:42.832Z,64.60
2017-12-13T06:12:08.601Z,71.17
2017-12-13T06:14:34.336Z,61.43
2017-12-13T06:17:00.088Z,65.60
2017-12-13T06:19:25.828Z,62.87
2017-12-13T06:21:51.563Z,66.70
2017-12-13T06:24:17.310Z,65.77
2017-12-13T06:26:43.046Z,63.37
2017-12-13T06:29:08.795Z,56.43
2017-12-13T06:31:34.546Z,53.50
2017-12-13T06:34:00.308Z,62.73
2017-12-13T06:36:26.041Z,66.70
2017-12-13T06:38:51.804Z,60.90
2017-12-13T06:41:17.534Z,59.33
2017-12-13T06:43:43.284Z,64.63
2017-12-13T06:46:09.016Z,57.53
2017-12-13T06:48:34.758Z,49.40
2017-12-13T06:51:00.511Z,58.10
2017-12-13T06:53:26.265Z,54.10
2017-12-13T06:55:52.020Z,67.70
2017-12-13T06:58:17.792Z,61.33
2017-12-13T07:00:43.568Z,57.30
2017-12-13T07:03:09.316Z,47.37
2017-12-13T07:05:35.047Z,50.33
2017-12-13T07:08:00.781Z,49.87
2017-12-13T07:10:26.544Z,50.50
2017-12-13T07:12:52.278Z,41.43
2017-12-13T07:15:18.043Z,47.50
2017-12-13T07:17:43.788Z,46.07
2017-12-13T07:20:09.539Z,47.00
2017-12-13T07:22:35.286Z,44.43
2017-12-13T07:25:01.040Z,44.30
2017-12-13T07:27:26.788Z,39.33
2017-12-13T07:29:52.544Z,38.33
2017-12-13T07:32:18.307Z,37.63
2017-12-13T07:34:44.055Z,33.53
2017-12-13T07:37:09.804Z,36.40
2017-12-13T07:39:35.550Z,33.70
2017-12-13T07:42:01.293Z,34.63
2017-12-13T07:44:27.052Z,37.50
2017-12-13T07:46:52.795Z,33.40
2017-12-13T07:49:18.543Z,36.60
2017-12-13T07:51:44.288Z,31.90
2017-12-13T07:54:10.024Z,31.47
2017-12-13T07:56:35.784Z,30.03
2017-12-13T07:59:01.534Z,30.47
2017-12-13T08:01:27.295Z,30.27
2017-12-13T08:03:53.036Z,26.73
2017-12-13T08:06:18.807Z,25.17
2017-12-13T08:08:44.547Z,25.27
2017-12-13T08:11:10.318Z,28.33
2017-12-13T08:13:36.052Z,23.73
2017-12-13T08:16:01.808Z,27.43
2017-12-13T08:18:27.555Z,26.87
2017-12-13T08:20:53.300Z,23.10
2017-12-13T08:23:19.034Z,22.30
2017-12-13T08:25:44.775Z,26.33
2017-12-13T08:28:10.544Z,24.33
2017-12-13T08:30:36.282Z,20.37
2017-12-13T08:33:02.047Z,29.23
2017-12-13T08:35:27.784Z,23.83
2017-12-13T08:37:53.543Z,30.47
2017-12-13T08:40:19.274Z,20.87
2017-12-13T08:42:45.041Z,19.63
2017-12-13T08:45:10.771Z,19.33
2017-12-13T08:47:36.544Z,29.53
2017-12-13T08:50:02.299Z,21.80
2017-12-13T08:52:28.044Z,22.93
2017-12-13T08:54:53.788Z,28.53
2017-12-13T08:57:19.563Z,34.80
2017-12-13T08:59:45.295Z,31.50
2017-12-13T09:02:11.040Z,21.13
2017-12-13T09:04:36.807Z,19.70
2017-12-13T09:07:02.563Z,16.03
2017-12-13T09:09:28.332Z,17.63
2017-12-13T09:11:54.074Z,17.17
2017-12-13T09:14:19.821Z,32.23
2017-12-13T09:16:45.555Z,24.67
2017-12-13T09:19:11.307Z,16.67
2017-12-13T09:21:37.043Z,32.30
2017-12-13T09:24:02.803Z,37.10
2017-12-13T09:26:28.546Z,24.33
2017-12-13T09:28:54.291Z,23.30
2017-12-13T09:31:20.047Z,23.90
2017-12-13T09:33:45.812Z,17.93
2017-12-13T09:36:11.574Z,25.57
2017-12-13T09:38:37.324Z,31.73
2017-12-13T09:41:03.080Z,19.27
2017-12-13T09:43:28.872Z,30.60
2017-12-13T09:45:54.579Z,31.87
2017-12-13T09:48:20.345Z,32.87
2017-12-13T09:50:46.099Z,33.33
2017-12-13T09:53:11.831Z,23.93
2017-12-13T09:55:37.584Z,28.37
2017-12-13T09:58:03.343Z,14.80
2017-12-13T10:00:29.095Z,17.50
2017-12-13T10:02:54.840Z,21.07
2017-12-13T10:05:20.600Z,16.77
2017-12-13T10:07:46.347Z,21.30
2017-12-13T10:10:12.107Z,14.03
2017-12-13T10:12:37.871Z,12.97
2017-12-13T10:15:03.620Z,22.90
2017-12-13T10:17:29.376Z,12.97
2017-12-13T10:19:55.109Z,27.50
2017-12-13T10:22:20.862Z,20.07
2017-12-13T10:24:46.601Z,26.90
2017-12-13T10:27:12.343Z,15.03
2017-12-13T10:29:38.083Z,18.33
2017-12-13T10:32:03.851Z,16.97
2017-12-13T10:34:29.591Z,12.57
2017-12-13T10:36:55.344Z,11.57
2017-12-13T10:39:21.144Z,10.93
2017-12-13T10:41:46.905Z,8.57
2017-12-13T10:44:12.656Z,12.23
2017-12-13T10:46:38.413Z,8.57
2017-12-13T10:49:04.184Z,7.87
2017-12-13T10:51:29.952Z,7.80
2017-12-13T10:53:55.707Z,9.17
2017-12-13T10:56:21.484Z,8.17
2017-12-13T10:58:47.246Z,8.13
2017-12-13T11:01:12.991Z,8.47
2017-12-13T11:03:38.771Z,8.40
2017-12-13T11:06:04.511Z,7.27
2017-12-13T11:08:30.295Z,8.97
2017-12-13T11:10:56.038Z,7.53
2017-12-13T11:13:21.796Z,9.13
2017-12-13T11:15:47.535Z,8.07
2017-12-13T11:18:13.316Z,9.37
2017-12-13T11:20:39.067Z,9.63
2017-12-13T11:23:04.845Z,7.93
2017-12-13T11:25:30.604Z,7.27
2017-12-13T11:27:56.384Z,7.07
2017-12-13T11:30:22.116Z,6.43
2017-12-13T11:32:47.886Z,6.73
2017-12-13T11:35:13.626Z,6.50
2017-12-13T11:37:39.385Z,7.53
2017-12-13T11:40:05.146Z,6.40
2017-12-13T11:42:30.909Z,8.67
2017-12-13T11:44:56.667Z,8.83
2017-12-13T11:47:22.427Z,8.90
2017-12-13T11:49:48.199Z,9.57
2017-12-13T11:52:13.957Z,8.03
2017-12-13T11:54:39.706Z,11.03
2017-12-13T11:57:05.460Z,7.40
2017-12-13T11:59:31.242Z,7.97
2017-12-13T12:01:57.000Z,8.83
2017-12-13T12:04:22.782Z,9.40
2017-12-13T12:06:48.556Z,8.13
2017-12-13T12:09:14.306Z,7.70
2017-12-13T12:11:40.068Z,10.07
2017-12-13T12:14:05.868Z,8.67
2017-12-13T12:16:31.616Z,10.83
2017-12-13T12:18:57.383Z,8.20
2017-12-13T12:21:23.152Z,8.13
2017-12-13T12:23:48.921Z,12.40
2017-12-13T12:26:14.723Z,10.80
2017-12-13T12:28:40.508Z,14.53
2017-12-13T12:31:06.328Z,11.80
2017-12-13T12:33:32.096Z,11.03
2017-12-13T12:35:57.855Z,11.87
2017-12-13T12:38:23.617Z,11.87
2017-12-13T12:40:49.400Z,12.03
2017-12-13T12:43:15.171Z,13.40
2017-12-13T12:45:40.952Z,15.60
2017-12-13T12:48:06.691Z,13.83
2017-12-13T12:50:32.464Z,14.33
2017-12-13T12:52:58.240Z,16.47
2017-12-13T12:55:23.984Z,19.53
2017-12-13T12:57:49.784Z,15.13
2017-12-13T13:00:15.538Z,15.60
2017-12-13T13:02:41.322Z,17.13
2017-12-13T13:05:07.074Z,16.60
2017-12-13T13:07:32.833Z,13.07
2017-12-13T13:09:58.584Z,15.63
2017-12-13T13:12:24.347Z,15.67
2017-12-13T13:14:50.105Z,16.93
2017-12-13T13:17:15.870Z,16.43
2017-12-13T13:19:41.639Z,15.17
2017-12-13T13:22:07.401Z,16.90
2017-12-13T13:24:33.151Z,19.90
2017-12-13T13:26:58.927Z,16.87
2017-12-13T13:29:24.679Z,15.50
2017-12-13T13:31:50.470Z,21.27
2017-12-13T13:34:16.215Z,20.87
2017-12-13T13:36:41.976Z,16.43
2017-12-13T13:39:07.737Z,16.23
2017-12-13T13:41:33.486Z,24.67
2017-12-13T13:43:59.252Z,18.93
2017-12-13T13:46:24.990Z,16.93
2017-12-13T13:48:50.755Z,22.07
2017-12-13T13:51:16.500Z,17.47
2017-12-13T13:53:42.267Z,20.17
2017-12-13T13:56:08.003Z,18.37
2017-12-13T13:58:33.777Z,19.33
2017-12-13T14:00:59.516Z,21.00
2017-12-13T14:03:25.284Z,27.90
2017-12-13T14:05:51.048Z,23.63
2017-12-13T14:08:16.795Z,24.40
2017-12-13T14:10:42.539Z,22.07
2017-12-13T14:13:08.295Z,23.60
2017-12-13T14:15:34.043Z,25.67
2017-12-13T14:17:59.785Z,25.93
2017-12-13T14:20:25.561Z,22.03
2017-12-13T14:22:51.340Z,24.73
2017-12-13T14:25:17.100Z,20.47
2017-12-13T14:27:42.846Z,24.63
2017-12-13T14:30:08.616Z,23.23
2017-12-13T14:32:34.375Z,26.27
2017-12-13T14:35:00.126Z,23.33
2017-12-13T14:37:26.008Z,26.07
2017-12-13T14:39:51.767Z,27.87
2017-12-13T14:42:17.537Z,21.90
2017-12-13T14:44:43.300Z,21.20
2017-12-13T14:47:09.041Z,24.77
2017-12-13T14:49:34.799Z,20.77
2017-12-13T14:52:00.555Z,20.77
2017-12-13T14:54:26.322Z,23.70
2017-12-13T14:56:52.063Z,22.10
2017-12-13T14:59:17.828Z,21.30
2017-12-13T15:01:43.562Z,24.27
2017-12-13T15:04:09.343Z,23.23
2017-12-13T15:06:35.084Z,23.73
2017-12-13T15:09:00.835Z,20.27
2017-12-13T15:11:26.597Z,20.47
2017-12-13T15:13:52.340Z,20.93
2017-12-13T15:16:18.104Z,18.80
2017-12-13T15:18:43.871Z,19.23
2017-12-13T15:21:09.632Z,18.23
2017-12-13T15:23:35.403Z,22.23
2017-12-13T15:26:01.173Z,20.20
2017-12-13T15:28:26.912Z,23.20
2017-12-13T15:30:52.685Z,20.77
2017-12-13T15:33:18.456Z,24.07
2017-12-13T15:35:44.224Z,21.00
2017-12-13T15:38:09.972Z,22.97
2017-12-13T15:40:35.733Z,16.73
2017-12-13T15:43:01.484Z,24.00
2017-12-13T15:45:27.301Z,19.83
2017-12-13T15:47:53.063Z,20.47
2017-12-13T15:50:18.815Z,22.00
2017-12-13T15:52:44.600Z,20.87
2017-12-13T15:55:10.367Z,19.57
2017-12-13T15:57:36.127Z,21.87
2017-12-13T16:00:01.904Z,19.93
2017-12-13T16:02:27.682Z,21.63
2017-12-13T16:04:53.425Z,28.87
2017-12-13T16:07:19.205Z,27.07
2017-12-13T16:09:44.958Z,25.90
2017-12-13T16:12:10.721Z,25.50
2017-12-13T16:14:36.459Z,25.40
2017-12-13T16:17:02.236Z,22.37
2017-12-13T16:19:27.978Z,24.83
2017-12-13T16:21:53.782Z,23.90
2017-12-13T16:24:19.533Z,26.50
2017-12-13T16:26:45.284Z,26.40
2017-12-13T16:29:11.097Z,26.43
2017-12-13T16:31:36.862Z,23.63
2017-12-13T16:34:02.633Z,22.13
2017-12-13T16:36:28.407Z,23.37
2017-12-13T16:38:54.176Z,23.23
2017-12-13T16:41:19.962Z,21.53
2017-12-13T16:43:45.725Z,23.80
2017-12-13T16:46:11.490Z,25.00
2017-12-13T16:48:37.262Z,21.97
2017-12-13T16:51:03.028Z,23.13
2017-12-13T16:53:28.776Z,24.67
2017-12-13T16:55:54.536Z,23.90
2017-12-13T16:58:20.297Z,28.33
2017-12-13T17:00:46.055Z,25.43
2017-12-13T17:03:11.828Z,23.50
2017-12-13T17:05:37.588Z,28.63
2017-12-13T17:08:03.398Z,25.27
2017-12-13T17:10:29.156Z,27.77
2017-12-13T17:12:54.911Z,22.90
2017-12-13T17:15:20.674Z,24.17
2017-12-13T17:17:46.479Z,26.30
2017-12-13T17:20:12.252Z,26.40
2017-12-13T17:22:38.015Z,31.73
2017-12-13T17:25:03.804Z,25.17
2017-12-13T17:27:29.554Z,30.77
2017-12-13T17:29:55.320Z,26.13
2017-12-13T17:32:21.096Z,26.00
2017-12-13T17:34:46.873Z,30.90
2017-12-13T17:37:12.639Z,32.83
2017-12-13T17:39:38.395Z,35.57
2017-12-13T17:42:04.144Z,31.30
2017-12-13T17:44:29.925Z,23.37
2017-12-13T17:46:55.726Z,26.43
2017-12-13T17:49:21.517Z,25.03
2017-12-13T17:51:47.269Z,25.27
2017-12-13T17:54:13.027Z,30.57
2017-12-13T17:56:38.792Z,25.10
2017-12-13T17:59:04.530Z,27.00
2017-12-13T18:01:30.299Z,28.13
2017-12-13T18:03:56.064Z,32.00
2017-12-13T18:06:21.829Z,26.67
2017-12-13T18:08:47.591Z,25.83
2017-12-13T18:11:13.354Z,34.87
2017-12-13T18:13:39.101Z,28.90
2017-12-13T18:16:04.863Z,23.83
2017-12-13T18:18:30.613Z,28.03
2017-12-13T18:20:56.369Z,24.63
2017-12-13T18:23:22.126Z,28.07
2017-12-13T18:25:47.904Z,30.67
2017-12-13T18:28:13.704Z,30.20
2017-12-13T18:30:39.473Z,25.53
2017-12-13T18:33:05.256Z,35.43
2017-12-13T18:35:31.052Z,33.40
2017-12-13T18:37:56.820Z,40.10
2017-12-13T18:40:22.617Z,36.60
2017-12-13T18:42:48.384Z,42.40
2017-12-13T18:45:14.125Z,44.87
2017-12-13T18:47:39.886Z,43.93
2017-12-13T18:50:05.651Z,40.90
2017-12-13T18:52:31.425Z,30.27
2017-12-13T18:54:57.961Z,36.45
2017-12-13T18:57:23.728Z,34.40
2017-12-13T18:59:49.525Z,34.70
2017-12-13T19:02:15.286Z,37.47
2017-12-13T19:04:41.275Z,42.13
2017-12-13T19:07:07.040Z,50.97
2017-12-13T19:09:32.799Z,59.97
2017-12-13T19:11:58.571Z,57.37
2017-12-13T19:14:24.315Z,104.03
2017-12-13T19:16:50.052Z,83.10
2017-12-13T19:19:15.826Z,82.07
2017-12-13T19:21:41.575Z,81.97
2017-12-13T19:24:07.372Z,90.90
2017-12-13T19:26:33.529Z,93.20
2017-12-13T19:28:59.451Z,132.80
2017-12-13T19:31:25.215Z,95.07
2017-12-13T19:33:50.982Z,106.57
2017-12-13T19:36:16.736Z,117.00
2017-12-13T19:38:42.541Z,110.60
2017-12-13T19:41:08.305Z,106.53
2017-12-13T19:43:34.068Z,141.87
2017-12-13T19:45:59.817Z,124.90
2017-12-13T19:48:25.576Z,162.90
2017-12-13T19:50:51.331Z,154.93
2017-12-13T19:53:17.088Z,162.53
2017-12-13T19:55:42.852Z,144.87
2017-12-13T19:58:08.608Z,185.27
2017-12-13T20:00:34.357Z,192.33
2017-12-13T20:03:00.162Z,175.13
2017-12-13T20:05:25.934Z,215.33
2017-12-13T20:07:51.696Z,170.43
2017-12-13T20:10:17.463Z,221.50
2017-12-13T20:12:43.217Z,192.67
2017-12-13T20:15:13.891Z,223.53
2017-12-13T20:17:39.629Z,157.70
2017-12-13T20:20:05.404Z,183.57
2017-12-13T20:22:31.154Z,227.67
2017-12-13T20:24:56.912Z,221.10
2017-12-13T20:27:22.648Z,164.60
2017-12-13T20:29:48.407Z,216.97
2017-12-13T20:32:14.168Z,232.60
2017-12-13T20:34:39.938Z,209.43
2017-12-13T20:37:05.700Z,202.43
2017-12-13T20:39:31.460Z,177.87
2017-12-13T20:41:57.266Z,223.80
2017-12-13T20:44:22.984Z,220.90
2017-12-13T20:46:48.766Z,229.80
2017-12-13T20:49:14.513Z,193.27
2017-12-13T20:51:40.279Z,206.37
2017-12-13T20:54:13.172Z,229.10
2017-12-13T20:56:38.953Z,231.98
2017-12-13T20:59:04.709Z,222.77
2017-12-13T21:01:30.486Z,219.07
2017-12-13T21:03:56.250Z,206.57
2017-12-13T21:06:22.010Z,161.63
2017-12-13T21:08:47.763Z,248.60
2017-12-13T21:11:13.526Z,258.60
2017-12-13T21:13:39.276Z,222.77
2017-12-13T21:16:05.039Z,229.57
2017-12-13T21:18:30.788Z,168.17
2017-12-13T21:20:56.564Z,200.53
2017-12-13T21:23:22.369Z,167.97
2017-12-13T21:25:48.127Z,171.47
2017-12-13T21:28:13.871Z,124.10
2017-12-13T21:30:39.639Z,159.27
2017-12-13T21:33:05.403Z,135.03
2017-12-13T21:35:31.198Z,143.50
2017-12-13T21:37:56.981Z,162.80
2017-12-13T21:40:22.867Z,185.07
2017-12-13T21:42:48.680Z,119.13
2017-12-13T21:45:14.431Z,151.93
2017-12-13T21:47:40.186Z,123.13
2017-12-13T21:50:05.927Z,128.10
2017-12-13T21:52:31.692Z,101.97
2017-12-13T21:54:57.451Z,121.40
2017-12-13T21:57:23.229Z,108.23
2017-12-13T21:59:49.004Z,88.27
2017-12-13T22:02:14.763Z,90.57
2017-12-13T22:04:40.530Z,92.43
2017-12-13T22:07:06.292Z,109.23
2017-12-13T22:09:32.058Z,94.97
2017-12-13T22:12:04.619Z,78.90
2017-12-13T22:14:30.373Z,70.90
2017-12-13T22:16:56.131Z,67.97
2017-12-13T22:19:21.875Z,65.83
2017-12-13T22:21:47.642Z,73.80
2017-12-13T22:24:13.397Z,96.37
2017-12-13T22:26:39.223Z,61.33
2017-12-13T22:29:04.953Z,74.00
2017-12-13T22:31:30.699Z,76.23
2017-12-13T22:33:56.466Z,80.97
2017-12-13T22:36:22.209Z,72.67
2017-12-13T22:38:47.984Z,73.00
2017-12-13T22:41:13.748Z,64.23
2017-12-13T22:43:39.534Z,66.57
2017-12-13T22:46:05.298Z,55.83
2017-12-13T22:48:31.061Z,61.33
2017-12-13T22:50:56.826Z,50.57
2017-12-13T22:53:22.595Z,48.90
2017-12-13T22:55:55.400Z,55.17
2017-12-13T22:58:21.169Z,51.58
2017-12-13T23:00:49.981Z,42.80
2017-12-13T23:03:15.753Z,44.78
2017-12-13T23:05:41.517Z,48.83
2017-12-13T23:08:07.317Z,50.30
2017-12-13T23:10:33.063Z,47.87
2017-12-13T23:12:58.821Z,49.97
2017-12-13T23:15:24.590Z,40.03
2017-12-13T23:17:50.343Z,38.67
2017-12-13T23:20:16.113Z,54.57
2017-12-13T23:22:41.867Z,41.00
2017-12-13T23:25:07.641Z,40.73
2017-12-13T23:27:33.411Z,36.30
2017-12-13T23:29:59.167Z,31.10
2017-12-13T23:32:24.927Z,24.20
2017-12-13T23:34:50.694Z,27.07
2017-12-13T23:37:16.444Z,24.83
2017-12-13T23:39:42.299Z,20.70
2017-12-13T23:42:08.066Z,24.20
2017-12-13T23:44:33.827Z,23.50
2017-12-13T23:46:59.594Z,26.60
2017-12-13T23:49:25.384Z,25.87
2017-12-13T23:51:51.127Z,16.43
2017-12-13T23:54:16.908Z,16.47
2017-12-13T23:56:42.677Z,15.87
2017-12-13T23:59:08.438Z,14.80
